Time;durP1;ratioP1;P1;durP2;ratioP2;P2;SDS_P1;SDS_P2;PMS_P1;PMS_P2;Temp;Humidity;BMP_temperature;BMP_pressure;BME280_temperature;BME280_humidity;BME280_pressure;Samples;Min_cycle;Max_cycle;Signal;HPM_P1;HPM_P2
2022/10/11 00:01:22;;;;;;;;;;;15.10;66.60;;;;;;5073245;28;20445;-76
2022/10/11 00:03:48;;;;;;;;;;;15.10;66.60;;;;;;5077354;28;19916;-76
2022/10/11 00:06:13;;;;;;;;;;;15.10;66.70;;;;;;5044125;28;19920;-76
2022/10/11 00:08:39;;;;;;;;;;;15.10;66.70;;;;;;5077881;28;19916;-75
2022/10/11 00:11:05;;;;;;;;;;;15.00;66.70;;;;;;5050548;28;19915;-76
2022/10/11 00:13:30;;;;;;;;;;;15.00;66.70;;;;;;5044833;28;20010;-77
2022/10/11 00:15:56;;;;;;;;;;;15.00;66.80;;;;;;5063993;28;20695;-77
2022/10/11 00:18:21;;;;;;;;;;;15.00;66.80;;;;;;5074611;28;19923;-77
2022/10/11 00:20:47;;;;;;;;;;;15.00;66.90;;;;;;5082863;28;19912;-77
2022/10/11 00:23:12;;;;;;;;;;;15.00;66.90;;;;;;5060015;28;19919;-77
2022/10/11 00:25:38;;;;;;;;;;;15.00;66.90;;;;;;5047160;28;20678;-76
2022/10/11 00:28:03;;;;;;;;;;;15.00;66.90;;;;;;5095876;27;19916;-76
2022/10/11 00:30:29;;;;;;;;;;;15.00;66.90;;;;;;5049643;28;19920;-76
2022/10/11 00:32:54;;;;;;;;;;;15.00;67.00;;;;;;5078354;28;20389;-77
2022/10/11 00:35:20;;;;;;;;;;;15.00;67.00;;;;;;5062403;28;20380;-76
2022/10/11 00:37:45;;;;;;;;;;;15.00;67.00;;;;;;5060776;28;19916;-76
2022/10/11 00:40:13;;;;;;;;;;;15.00;67.00;;;;;;5054167;28;20406;-77
2022/10/11 00:42:38;;;;;;;;;;;15.00;67.00;;;;;;5064025;28;19919;-74
2022/10/11 00:45:22;;;;;;;;;;;15.00;67.00;;;;;;5077921;28;20051;-76
2022/10/11 00:47:48;;;;;;;;;;;15.00;67.00;;;;;;5065381;28;19956;-75
2022/10/11 00:50:13;;;;;;;;;;;15.00;67.00;;;;;;5063497;28;19969;-75
2022/10/11 00:52:39;;;;;;;;;;;14.90;67.00;;;;;;5092568;27;19920;-75
2022/10/11 00:55:06;;;;;;;;;;;14.90;67.00;;;;;;5066448;28;19981;-75
2022/10/11 00:57:32;;;;;;;;;;;14.90;67.10;;;;;;5069623;28;19944;-75
2022/10/11 00:59:58;;;;;;;;;;;14.90;67.90;;;;;;5021209;28;19963;-75
2022/10/11 01:02:23;;;;;;;;;;;14.90;67.90;;;;;;5019251;28;19916;-75
2022/10/11 01:04:49;;;;;;;;;;;14.90;67.10;;;;;;5054980;28;19920;-75
2022/10/11 01:07:15;;;;;;;;;;;14.90;67.10;;;;;;5051984;28;19919;-75
2022/10/11 01:09:41;;;;;;;;;;;14.90;67.10;;;;;;5038940;28;19936;-75
2022/10/11 01:12:11;;;;;;;;;;;14.90;67.20;;;;;;5038369;28;19921;-75
2022/10/11 01:14:45;;;;;;;;;;;14.90;67.20;;;;;;5035417;28;19951;-75
2022/10/11 01:17:13;;;;;;;;;;;14.90;67.20;;;;;;5039745;28;20267;-74
2022/10/11 01:19:38;;;;;;;;;;;14.90;67.20;;;;;;5040787;28;19944;-74
2022/10/11 01:22:09;;;;;;;;;;;14.90;67.20;;;;;;5039232;28;19951;-74
2022/10/11 01:24:53;;;;;;;;;;;14.80;67.20;;;;;;5025280;28;19912;-75
2022/10/11 01:27:24;;;;;;;;;;;14.90;67.30;;;;;;5025991;28;19917;-76
2022/10/11 01:29:55;;;;;;;;;;;14.80;67.20;;;;;;5040588;28;19922;-75
2022/10/11 01:32:23;;;;;;;;;;;14.80;67.30;;;;;;5055484;28;20356;-74
2022/10/11 01:34:48;;;;;;;;;;;14.80;67.30;;;;;;5054695;28;20517;-75
2022/10/11 01:37:17;;;;;;;;;;;14.80;67.40;;;;;;5041551;28;20411;-76
2022/10/11 01:39:45;;;;;;;;;;;14.80;67.40;;;;;;5066066;28;20006;-74
2022/10/11 01:42:11;;;;;;;;;;;14.70;67.30;;;;;;5024942;28;19924;-74
2022/10/11 01:44:36;;;;;;;;;;;14.60;67.40;;;;;;5037046;28;19908;-75
2022/10/11 01:47:02;;;;;;;;;;;14.60;67.40;;;;;;5037847;28;19908;-75
2022/10/11 01:49:27;;;;;;;;;;;14.60;67.50;;;;;;5026398;28;19919;-74
2022/10/11 01:51:53;;;;;;;;;;;14.50;67.50;;;;;;5041462;28;20004;-74
2022/10/11 01:54:18;;;;;;;;;;;14.50;67.60;;;;;;5062337;28;19913;-77
2022/10/11 01:56:54;;;;;;;;;;;14.50;67.60;;;;;;5062253;28;19923;-77
2022/10/11 01:59:23;;;;;;;;;;;14.50;67.70;;;;;;5051457;28;20019;-77
2022/10/11 02:02:09;;;;;;;;;;;14.40;67.70;;;;;;5064147;28;19939;-76
2022/10/11 02:04:38;;;;;;;;;;;14.40;67.70;;;;;;5060546;28;20015;-77
2022/10/11 02:07:03;;;;;;;;;;;14.40;67.80;;;;;;5062432;28;19988;-76
2022/10/11 02:09:30;;;;;;;;;;;14.30;67.80;;;;;;5077935;28;19935;-77
2022/10/11 02:11:57;;;;;;;;;;;14.30;67.90;;;;;;5097770;28;19919;-78
2022/10/11 02:14:23;;;;;;;;;;;14.20;67.90;;;;;;5052107;28;19926;-77
2022/10/11 02:16:53;;;;;;;;;;;14.10;68.00;;;;;;5050209;28;19966;-77
2022/10/11 02:19:19;;;;;;;;;;;14.10;68.00;;;;;;5051326;28;19967;-78
2022/10/11 02:21:46;;;;;;;;;;;14.10;68.10;;;;;;5068515;28;19928;-78
2022/10/11 02:24:15;;;;;;;;;;;14.10;68.20;;;;;;5065058;28;19916;-75
2022/10/11 02:26:42;;;;;;;;;;;14.10;68.20;;;;;;5059526;28;19964;-74
2022/10/11 02:29:07;;;;;;;;;;;14.00;68.10;;;;;;5042059;28;19954;-73
2022/10/11 02:31:33;;;;;;;;;;;14.00;68.20;;;;;;5053842;28;20625;-74
2022/10/11 02:33:58;;;;;;;;;;;14.00;68.20;;;;;;5071054;28;19943;-74
2022/10/11 02:36:25;;;;;;;;;;;14.00;68.30;;;;;;5055066;28;20565;-74
2022/10/11 02:38:54;;;;;;;;;;;13.90;68.30;;;;;;5055527;28;19913;-74
2022/10/11 02:41:20;;;;;;;;;;;13.90;68.30;;;;;;5059490;28;19952;-74
2022/10/11 02:43:47;;;;;;;;;;;13.90;68.40;;;;;;5069569;28;19947;-75
2022/10/11 02:46:12;;;;;;;;;;;13.90;68.40;;;;;;5070445;28;19962;-75
2022/10/11 02:48:38;;;;;;;;;;;13.80;68.40;;;;;;5059798;28;20518;-75
2022/10/11 02:51:04;;;;;;;;;;;13.80;68.40;;;;;;5073514;28;19977;-75
2022/10/11 02:53:29;;;;;;;;;;;13.80;68.40;;;;;;5045738;28;19916;-76
2022/10/11 02:55:55;;;;;;;;;;;13.70;68.40;;;;;;5065294;28;19971;-75
2022/10/11 02:58:21;;;;;;;;;;;13.70;68.50;;;;;;5062945;28;19985;-75
2022/10/11 03:00:47;;;;;;;;;;;13.60;68.50;;;;;;5097136;28;19962;-75
2022/10/11 03:03:12;;;;;;;;;;;13.60;68.60;;;;;;5056387;28;20362;-75
2022/10/11 03:05:40;;;;;;;;;;;13.50;68.60;;;;;;5089617;27;19912;-76
2022/10/11 03:08:06;;;;;;;;;;;13.50;68.70;;;;;;5063831;28;19916;-75
2022/10/11 03:10:33;;;;;;;;;;;13.50;68.70;;;;;;5084755;28;20428;-75
2022/10/11 03:12:58;;;;;;;;;;;13.50;68.80;;;;;;5092576;27;19918;-75
2022/10/11 03:15:24;;;;;;;;;;;13.40;68.70;;;;;;5081688;28;19912;-75
2022/10/11 03:17:49;;;;;;;;;;;13.40;68.90;;;;;;5080203;28;20477;-75
2022/10/11 03:20:15;;;;;;;;;;;13.40;68.90;;;;;;5101019;27;19916;-76
2022/10/11 03:22:40;;;;;;;;;;;13.30;68.90;;;;;;5097117;27;19931;-73
2022/10/11 03:25:06;;;;;;;;;;;13.30;69.00;;;;;;5055340;28;20616;-76
2022/10/11 03:27:32;;;;;;;;;;;13.30;69.00;;;;;;5083696;28;20364;-76
2022/10/11 03:29:57;;;;;;;;;;;13.20;69.00;;;;;;5093539;27;19920;-75
2022/10/11 03:32:23;;;;;;;;;;;13.20;69.10;;;;;;5090041;27;20291;-77
2022/10/11 03:34:48;;;;;;;;;;;13.20;69.10;;;;;;5079620;28;20275;-76
2022/10/11 03:37:14;;;;;;;;;;;13.10;69.10;;;;;;5079314;28;19916;-75
2022/10/11 03:39:39;;;;;;;;;;;13.20;69.20;;;;;;5067913;28;19919;-75
2022/10/11 03:42:05;;;;;;;;;;;13.10;69.20;;;;;;5041744;28;20351;-77
2022/10/11 03:44:30;;;;;;;;;;;13.10;69.20;;;;;;5078852;28;19950;-75
2022/10/11 03:46:56;;;;;;;;;;;13.10;69.20;;;;;;5064913;28;20819;-75
2022/10/11 03:49:22;;;;;;;;;;;13.10;69.20;;;;;;5067015;28;19916;-75
2022/10/11 03:51:47;;;;;;;;;;;13.10;69.20;;;;;;5085020;28;19919;-76
2022/10/11 03:54:12;;;;;;;;;;;13.10;69.20;;;;;;5046506;28;19968;-76
2022/10/11 03:56:38;;;;;;;;;;;13.20;69.20;;;;;;5046870;28;20360;-76
2022/10/11 03:59:03;;;;;;;;;;;13.10;69.20;;;;;;5082987;28;20010;-76
2022/10/11 04:01:29;;;;;;;;;;;13.10;69.20;;;;;;5050600;28;19915;-76
2022/10/11 04:03:56;;;;;;;;;;;13.10;70.00;;;;;;5085793;28;19913;-76
2022/10/11 04:06:21;;;;;;;;;;;13.10;69.20;;;;;;5064074;28;19943;-75
2022/10/11 04:08:47;;;;;;;;;;;13.10;69.20;;;;;;5094700;28;20660;-76
2022/10/11 04:11:12;;;;;;;;;;;13.10;69.30;;;;;;5050892;28;19920;-76
2022/10/11 04:13:38;;;;;;;;;;;13.10;69.30;;;;;;5055340;28;19916;-76
2022/10/11 04:16:03;;;;;;;;;;;13.00;69.30;;;;;;5097185;28;19943;-76
2022/10/11 04:18:29;;;;;;;;;;;13.00;69.30;;;;;;5082347;28;19920;-75
2022/10/11 04:20:54;;;;;;;;;;;13.00;69.40;;;;;;5083606;28;20369;-76
2022/10/11 04:23:20;;;;;;;;;;;13.00;69.40;;;;;;5080221;28;19920;-76
2022/10/11 04:25:47;;;;;;;;;;;13.00;69.40;;;;;;5051435;28;19928;-75
2022/10/11 04:28:12;;;;;;;;;;;12.90;69.40;;;;;;5082361;28;20003;-76
2022/10/11 04:30:38;;;;;;;;;;;12.90;69.40;;;;;;5059064;28;19951;-76
2022/10/11 04:33:03;;;;;;;;;;;12.80;69.40;;;;;;5082650;28;20395;-75
2022/10/11 04:35:29;;;;;;;;;;;12.80;69.50;;;;;;5081094;28;19912;-76
2022/10/11 04:37:55;;;;;;;;;;;12.70;69.40;;;;;;5041247;28;19930;-75
2022/10/11 04:40:20;;;;;;;;;;;12.70;69.60;;;;;;5050535;28;19920;-76
2022/10/11 04:42:46;;;;;;;;;;;12.60;69.60;;;;;;5080081;28;21516;-75
2022/10/11 04:45:11;;;;;;;;;;;12.50;69.60;;;;;;5058816;28;19927;-77
2022/10/11 04:47:39;;;;;;;;;;;12.50;69.70;;;;;;5061521;28;19916;-76
2022/10/11 04:50:04;;;;;;;;;;;12.40;69.80;;;;;;5078581;28;19912;-75
2022/10/11 04:52:30;;;;;;;;;;;12.40;69.90;;;;;;5080516;28;19923;-75
2022/10/11 04:54:55;;;;;;;;;;;12.30;69.90;;;;;;5091673;28;19920;-76
2022/10/11 04:57:21;;;;;;;;;;;12.30;70.00;;;;;;5044895;28;19916;-75
2022/10/11 04:59:46;;;;;;;;;;;12.20;70.00;;;;;;5054283;28;19916;-76
2022/10/11 05:02:12;;;;;;;;;;;12.20;70.00;;;;;;5067568;28;20426;-75
2022/10/11 05:04:37;;;;;;;;;;;12.10;70.00;;;;;;5051374;28;20171;-75
2022/10/11 05:07:03;;;;;;;;;;;12.10;70.10;;;;;;5043249;28;19912;-74
2022/10/11 05:09:28;;;;;;;;;;;12.10;70.10;;;;;;5046193;28;20425;-75
2022/10/11 05:11:54;;;;;;;;;;;12.00;70.10;;;;;;5059629;28;19972;-75
2022/10/11 05:14:19;;;;;;;;;;;12.00;70.20;;;;;;5056824;28;19935;-76
2022/10/11 05:16:45;;;;;;;;;;;12.00;70.30;;;;;;5057180;28;19913;-76
2022/10/11 05:19:11;;;;;;;;;;;12.00;70.30;;;;;;5067497;28;20133;-76
2022/10/11 05:21:36;;;;;;;;;;;12.00;70.30;;;;;;5038221;28;20386;-74
2022/10/11 05:24:02;;;;;;;;;;;11.90;70.30;;;;;;5063347;28;20327;-75
2022/10/11 05:26:27;;;;;;;;;;;11.90;70.30;;;;;;5054884;28;19927;-75
2022/10/11 05:28:53;;;;;;;;;;;11.80;70.30;;;;;;5077708;28;19922;-75
2022/10/11 05:31:18;;;;;;;;;;;11.80;70.30;;;;;;5042270;28;20360;-76
2022/10/11 05:33:44;;;;;;;;;;;11.80;70.40;;;;;;5074869;28;19999;-75
2022/10/11 05:36:10;;;;;;;;;;;11.80;70.50;;;;;;5060816;28;19919;-74
2022/10/11 05:38:35;;;;;;;;;;;11.80;70.50;;;;;;5044090;28;19951;-75
2022/10/11 05:41:01;;;;;;;;;;;11.80;70.50;;;;;;5073790;28;19916;-75
2022/10/11 05:43:26;;;;;;;;;;;11.70;70.50;;;;;;5076206;28;19915;-76
2022/10/11 05:45:52;;;;;;;;;;;11.70;70.50;;;;;;5078262;28;19915;-76
2022/10/11 05:48:17;;;;;;;;;;;11.70;70.60;;;;;;5059341;28;20299;-76
2022/10/11 05:50:43;;;;;;;;;;;11.70;70.50;;;;;;5075292;28;19926;-75
2022/10/11 05:53:08;;;;;;;;;;;11.70;70.60;;;;;;5057261;28;19988;-75
2022/10/11 05:55:40;;;;;;;;;;;11.70;70.60;;;;;;5076998;28;20335;-76
2022/10/11 05:58:05;;;;;;;;;;;11.60;70.60;;;;;;5074103;28;19973;-75
2022/10/11 06:00:31;;;;;;;;;;;11.60;70.60;;;;;;5071207;28;19917;-75
2022/10/11 06:02:56;;;;;;;;;;;11.60;70.60;;;;;;5044439;28;20061;-75
2022/10/11 06:05:22;;;;;;;;;;;11.60;70.70;;;;;;5072810;28;19931;-75
2022/10/11 06:07:47;;;;;;;;;;;11.70;70.80;;;;;;5042159;28;19985;-76
2022/10/11 06:10:13;;;;;;;;;;;11.70;70.70;;;;;;5059489;28;19918;-76
2022/10/11 06:12:38;;;;;;;;;;;11.70;70.80;;;;;;5061550;28;20272;-76
2022/10/11 06:15:05;;;;;;;;;;;11.70;70.70;;;;;;5056472;28;19947;-76
2022/10/11 06:17:30;;;;;;;;;;;11.70;70.80;;;;;;5069621;28;19923;-75
2022/10/11 06:19:56;;;;;;;;;;;11.70;70.70;;;;;;5072099;28;19908;-74
2022/10/11 06:22:21;;;;;;;;;;;11.70;70.70;;;;;;5069595;28;19908;-76
2022/10/11 06:24:47;;;;;;;;;;;11.70;70.70;;;;;;5054448;28;19920;-75
2022/10/11 06:27:12;;;;;;;;;;;11.80;70.70;;;;;;5073560;28;19930;-76
2022/10/11 06:29:38;;;;;;;;;;;11.80;70.70;;;;;;5076768;28;19916;-76
2022/10/11 06:32:04;;;;;;;;;;;11.80;70.70;;;;;;5048000;28;20402;-75
2022/10/11 06:34:29;;;;;;;;;;;11.80;70.70;;;;;;5046034;28;19919;-76
2022/10/11 06:36:55;;;;;;;;;;;11.80;70.60;;;;;;5059454;28;19912;-76
2022/10/11 06:39:20;;;;;;;;;;;11.80;70.60;;;;;;5094072;28;19934;-75
2022/10/11 06:41:46;;;;;;;;;;;11.80;70.60;;;;;;5059807;28;19939;-75
2022/10/11 06:44:12;;;;;;;;;;;11.90;70.60;;;;;;5079088;28;19920;-75
2022/10/11 06:46:37;;;;;;;;;;;11.90;70.60;;;;;;5057934;28;19920;-75
2022/10/11 06:49:02;;;;;;;;;;;11.90;70.60;;;;;;5077762;28;20067;-75
2022/10/11 06:51:29;;;;;;;;;;;11.90;70.60;;;;;;5044612;28;20458;-75
2022/10/11 06:53:57;;;;;;;;;;;12.00;70.60;;;;;;5069327;28;19912;-75
2022/10/11 06:56:24;;;;;;;;;;;12.00;70.50;;;;;;5061930;28;20398;-75
2022/10/11 06:58:52;;;;;;;;;;;12.00;70.50;;;;;;5076756;28;20463;-75
2022/10/11 07:01:20;;;;;;;;;;;12.10;70.50;;;;;;5082842;28;19916;-74
2022/10/11 07:03:45;;;;;;;;;;;12.10;70.50;;;;;;5041483;28;20124;-75
2022/10/11 07:06:12;;;;;;;;;;;12.10;70.50;;;;;;5048706;28;20093;-75
2022/10/11 07:08:37;;;;;;;;;;;12.10;70.50;;;;;;5059484;28;19974;-75
2022/10/11 07:11:04;;;;;;;;;;;12.10;70.50;;;;;;5061226;28;20552;-74
2022/10/11 07:13:29;;;;;;;;;;;12.10;70.40;;;;;;5073794;28;20049;-75
2022/10/11 07:15:55;;;;;;;;;;;12.20;70.50;;;;;;5058888;28;19916;-75
2022/10/11 07:18:20;;;;;;;;;;;12.20;70.50;;;;;;5061237;28;19916;-74
2022/10/11 07:20:46;;;;;;;;;;;12.20;70.40;;;;;;5043569;28;19916;-76
2022/10/11 07:23:11;;;;;;;;;;;12.20;70.40;;;;;;5080162;28;19969;-76
2022/10/11 07:25:37;;;;;;;;;;;12.20;70.40;;;;;;5047373;28;20411;-74
2022/10/11 07:28:02;;;;;;;;;;;12.30;70.40;;;;;;5081058;28;19924;-74
2022/10/11 07:30:28;;;;;;;;;;;12.30;70.40;;;;;;5066119;28;19917;-75
2022/10/11 07:32:53;;;;;;;;;;;12.40;70.40;;;;;;5094987;28;19916;-75
2022/10/11 07:35:18;;;;;;;;;;;12.40;70.40;;;;;;5063692;28;20486;-75
2022/10/11 07:37:44;;;;;;;;;;;12.50;70.40;;;;;;5076760;28;19947;-75
2022/10/11 07:40:10;;;;;;;;;;;12.60;70.40;;;;;;5044757;28;20360;-74
2022/10/11 07:42:35;;;;;;;;;;;12.60;70.20;;;;;;5059981;28;19916;-75
2022/10/11 07:45:01;;;;;;;;;;;12.70;70.20;;;;;;5059592;28;19930;-75
2022/10/11 07:47:26;;;;;;;;;;;12.80;70.20;;;;;;5046208;28;19923;-76
2022/10/11 07:49:52;;;;;;;;;;;12.90;70.10;;;;;;5059326;28;19915;-75
2022/10/11 07:52:17;;;;;;;;;;;13.00;70.00;;;;;;5059155;28;19920;-75
2022/10/11 07:54:43;;;;;;;;;;;13.00;69.90;;;;;;5075103;28;20416;-76
2022/10/11 07:57:08;;;;;;;;;;;13.10;69.90;;;;;;5076127;28;19919;-76
2022/10/11 07:59:34;;;;;;;;;;;13.20;69.90;;;;;;5063479;28;19919;-74
2022/10/11 08:01:59;;;;;;;;;;;13.20;69.70;;;;;;5074436;28;19917;-75
2022/10/11 08:04:25;;;;;;;;;;;13.20;69.70;;;;;;5073353;28;20407;-75
2022/10/11 08:06:50;;;;;;;;;;;13.20;69.70;;;;;;5074868;28;19999;-76
2022/10/11 08:09:16;;;;;;;;;;;13.30;69.80;;;;;;5057094;28;20498;-75
2022/10/11 08:11:41;;;;;;;;;;;13.30;69.70;;;;;;5057672;28;19946;-75
2022/10/11 08:14:10;;;;;;;;;;;13.40;69.70;;;;;;5074542;28;19920;-75
2022/10/11 08:16:36;;;;;;;;;;;13.40;69.70;;;;;;5072964;28;19916;-77
2022/10/11 08:19:02;;;;;;;;;;;13.40;69.60;;;;;;5071934;28;19987;-74
2022/10/11 08:21:28;;;;;;;;;;;13.40;69.60;;;;;;5075546;28;20956;-75
2022/10/11 08:23:53;;;;;;;;;;;13.50;69.60;;;;;;5058087;28;19916;-75
2022/10/11 08:26:19;;;;;;;;;;;13.50;69.60;;;;;;5078233;28;20564;-76
2022/10/11 08:28:45;;;;;;;;;;;13.60;69.60;;;;;;5063436;28;19919;-75
2022/10/11 08:31:14;;;;;;;;;;;13.60;69.60;;;;;;5074987;28;19948;-76
2022/10/11 08:33:39;;;;;;;;;;;13.70;69.50;;;;;;5045271;28;20003;-74
2022/10/11 08:36:05;;;;;;;;;;;13.80;69.50;;;;;;5062039;28;20015;-75
2022/10/11 08:38:31;;;;;;;;;;;13.90;69.50;;;;;;5077256;28;20320;-75
2022/10/11 08:40:57;;;;;;;;;;;14.00;69.40;;;;;;5076598;28;19919;-76
2022/10/11 08:43:29;;;;;;;;;;;14.10;69.30;;;;;;5088415;28;20308;-75
2022/10/11 08:45:55;;;;;;;;;;;14.10;69.20;;;;;;5076483;28;19912;-76
2022/10/11 08:48:22;;;;;;;;;;;14.20;69.10;;;;;;5064332;28;19912;-76
2022/10/11 08:50:48;;;;;;;;;;;14.30;69.10;;;;;;5058265;28;19919;-75
2022/10/11 08:53:14;;;;;;;;;;;14.50;69.10;;;;;;5045544;28;19923;-76
2022/10/11 08:55:43;;;;;;;;;;;14.60;68.90;;;;;;5061078;28;19916;-75
2022/10/11 08:58:13;;;;;;;;;;;14.70;68.80;;;;;;5041516;28;19924;-75
2022/10/11 09:00:38;;;;;;;;;;;14.70;68.80;;;;;;5058733;28;20356;-76
2022/10/11 09:03:04;;;;;;;;;;;14.80;68.70;;;;;;5059388;28;20053;-76
2022/10/11 09:05:37;;;;;;;;;;;14.90;68.70;;;;;;5075618;28;19956;-76
2022/10/11 09:08:11;;;;;;;;;;;15.10;68.60;;;;;;5073990;28;19924;-75
2022/10/11 09:10:36;;;;;;;;;;;15.20;68.40;;;;;;5059621;28;20423;-76
2022/10/11 09:13:18;;;;;;;;;;;15.40;68.40;;;;;;5077132;28;20015;-74
2022/10/11 09:15:45;;;;;;;;;;;15.50;68.20;;;;;;5074153;28;19913;-77
2022/10/11 09:18:14;;;;;;;;;;;15.50;68.00;;;;;;5072174;28;19912;-77
2022/10/11 09:20:45;;;;;;;;;;;15.60;67.90;;;;;;5072276;28;20002;-76
2022/10/11 09:23:16;;;;;;;;;;;15.50;67.80;;;;;;5058914;28;19919;-75
2022/10/11 09:25:43;;;;;;;;;;;15.50;67.90;;;;;;5070604;28;19915;-75
2022/10/11 09:28:31;;;;;;;;;;;15.50;67.90;;;;;;5064479;28;19967;-75
2022/10/11 09:30:57;;;;;;;;;;;15.50;68.00;;;;;;5036877;28;20019;-75
2022/10/11 09:33:31;;;;;;;;;;;15.60;68.10;;;;;;5074111;28;20444;-74
2022/10/11 09:35:56;;;;;;;;;;;15.70;68.10;;;;;;5074090;28;19919;-76
2022/10/11 09:38:34;;;;;;;;;;;15.70;68.00;;;;;;5036766;28;19920;-75
2022/10/11 09:41:03;;;;;;;;;;;15.80;67.80;;;;;;5057620;28;20015;-75
2022/10/11 09:43:28;;;;;;;;;;;15.90;67.80;;;;;;5069246;28;19991;-75
2022/10/11 09:45:54;;;;;;;;;;;15.90;67.60;;;;;;5052731;28;19995;-76
2022/10/11 09:48:20;;;;;;;;;;;16.00;67.60;;;;;;5071735;28;19920;-76
2022/10/11 09:50:46;;;;;;;;;;;16.00;67.60;;;;;;5073320;28;19923;-76
2022/10/11 09:53:11;;;;;;;;;;;16.00;67.50;;;;;;5041741;28;19923;-76
2022/10/11 09:55:49;;;;;;;;;;;16.10;67.60;;;;;;5072042;28;20450;-77
2022/10/11 09:58:27;;;;;;;;;;;16.10;67.50;;;;;;5070176;28;19929;-76
2022/10/11 10:00:56;;;;;;;;;;;16.10;67.40;;;;;;5070483;28;19920;-77
2022/10/11 10:03:29;;;;;;;;;;;16.20;67.50;;;;;;5065406;28;19919;-77
2022/10/11 10:06:04;;;;;;;;;;;16.20;67.40;;;;;;5069146;28;19920;-76
2022/10/11 10:08:30;;;;;;;;;;;16.40;67.50;;;;;;5077681;28;19915;-75
2022/10/11 10:10:55;;;;;;;;;;;16.50;67.30;;;;;;5072289;28;19920;-76
2022/10/11 10:13:22;;;;;;;;;;;16.60;67.10;;;;;;5065355;28;19920;-77
2022/10/11 10:15:52;;;;;;;;;;;16.70;67.00;;;;;;5047847;28;19920;-77
2022/10/11 10:18:20;;;;;;;;;;;16.80;67.00;;;;;;5058490;28;19963;-76
2022/10/11 10:20:49;;;;;;;;;;;17.00;66.90;;;;;;5062531;28;19916;-76
2022/10/11 10:23:22;;;;;;;;;;;17.20;66.80;;;;;;5058752;28;21268;-77
2022/10/11 10:25:50;;;;;;;;;;;17.40;66.50;;;;;;5079067;28;20587;-77
2022/10/11 10:28:18;;;;;;;;;;;17.50;66.30;;;;;;5078862;28;20014;-75
2022/10/11 10:30:54;;;;;;;;;;;17.60;66.10;;;;;;5077248;28;19935;-76
2022/10/11 10:33:23;;;;;;;;;;;17.70;66.00;;;;;;5064235;28;19912;-77
2022/10/11 10:36:11;;;;;;;;;;;17.80;66.30;;;;;;5061366;28;19916;-77
2022/10/11 10:38:41;;;;;;;;;;;17.70;65.90;;;;;;5044166;28;19916;-77
2022/10/11 10:41:11;;;;;;;;;;;17.70;65.90;;;;;;5080810;28;19997;-77
2022/10/11 10:43:37;;;;;;;;;;;17.70;65.90;;;;;;5057510;28;20064;-76
2022/10/11 10:46:06;;;;;;;;;;;17.70;65.80;;;;;;5079977;28;19923;-76
2022/10/11 10:48:43;;;;;;;;;;;17.70;65.90;;;;;;5060558;28;19912;-77
2022/10/11 10:51:13;;;;;;;;;;;17.70;66.00;;;;;;5071741;28;19919;-75
2022/10/11 10:53:46;;;;;;;;;;;17.80;66.00;;;;;;5061550;28;20003;-76
2022/10/11 10:56:15;;;;;;;;;;;17.80;65.80;;;;;;5056975;28;19913;-77
2022/10/11 10:58:50;;;;;;;;;;;17.90;65.80;;;;;;5055165;28;19928;-75
2022/10/11 11:01:23;;;;;;;;;;;18.00;65.70;;;;;;5059413;28;19916;-78
2022/10/11 11:03:51;;;;;;;;;;;18.10;65.70;;;;;;5079689;28;19912;-76
2022/10/11 11:06:19;;;;;;;;;;;18.10;65.60;;;;;;5077886;28;20030;-76
2022/10/11 11:09:04;;;;;;;;;;;18.30;65.60;;;;;;5075681;28;20392;-76
2022/10/11 11:11:51;;;;;;;;;;;18.30;65.30;;;;;;5074526;28;19974;-77
2022/10/11 11:14:20;;;;;;;;;;;18.50;65.20;;;;;;5078983;28;19956;-76
2022/10/11 11:16:57;;;;;;;;;;;18.60;65.20;;;;;;5075848;28;20556;-76
2022/10/11 11:19:25;;;;;;;;;;;18.60;65.00;;;;;;5062733;28;20010;-76
2022/10/11 11:21:51;;;;;;;;;;;18.70;64.90;;;;;;5077249;28;19916;-77
2022/10/11 11:24:16;;;;;;;;;;;18.70;64.90;;;;;;5074435;28;19920;-77
2022/10/11 11:26:42;;;;;;;;;;;18.80;64.80;;;;;;5075947;28;20026;-76
2022/10/11 11:29:26;;;;;;;;;;;18.80;64.80;;;;;;5077385;28;20577;-77
2022/10/11 11:31:54;;;;;;;;;;;18.90;64.80;;;;;;5063105;28;19939;-76
2022/10/11 11:34:23;;;;;;;;;;;18.90;64.70;;;;;;5062538;28;19924;-77
2022/10/11 11:36:51;;;;;;;;;;;19.00;64.70;;;;;;5061601;28;19916;-77
2022/10/11 11:39:23;;;;;;;;;;;19.10;64.60;;;;;;5058595;28;19995;-75
2022/10/11 11:42:27;;;;;;;;;;;19.10;64.50;;;;;;5061758;28;19946;-77
2022/10/11 11:44:52;;;;;;;;;;;19.20;64.50;;;;;;5036612;28;19978;-77
2022/10/11 11:47:24;;;;;;;;;;;19.30;64.40;;;;;;5025860;28;19921;-75
2022/10/11 11:49:56;;;;;;;;;;;19.30;64.40;;;;;;5020025;28;19990;-77
2022/10/11 11:52:40;;;;;;;;;;;19.40;64.30;;;;;;5025370;28;19924;-77
2022/10/11 11:55:27;;;;;;;;;;;19.60;64.20;;;;;;5017674;28;20457;-77
2022/10/11 11:57:58;;;;;;;;;;;19.70;64.00;;;;;;5026418;28;19931;-77
2022/10/11 12:00:24;;;;;;;;;;;19.70;63.80;;;;;;4996876;28;19917;-78
2022/10/11 12:02:59;;;;;;;;;;;19.80;64.00;;;;;;5017420;28;19923;-77
2022/10/11 12:05:33;;;;;;;;;;;20.00;63.90;;;;;;5037893;28;19920;-77
2022/10/11 12:07:59;;;;;;;;;;;20.10;63.60;;;;;;5020262;28;19944;-77
2022/10/11 12:10:28;;;;;;;;;;;20.20;63.30;;;;;;5018798;28;19913;-76
2022/10/11 12:13:14;;;;;;;;;;;20.20;63.30;;;;;;5033562;28;20488;-77
2022/10/11 12:15:39;;;;;;;;;;;20.20;63.30;;;;;;5023472;28;19916;-76
2022/10/11 12:18:12;;;;;;;;;;;20.20;63.30;;;;;;5050564;28;19912;-77
2022/10/11 12:20:39;;;;;;;;;;;20.30;63.40;;;;;;5053779;28;19924;-77
2022/10/11 12:23:17;;;;;;;;;;;20.40;63.30;;;;;;5069163;28;19911;-76
2022/10/11 12:25:43;;;;;;;;;;;20.50;63.20;;;;;;5071721;28;19916;-77
2022/10/11 12:28:27;;;;;;;;;;;20.60;63.10;;;;;;5058126;28;19927;-77
2022/10/11 12:30:52;;;;;;;;;;;20.70;63.00;;;;;;5072763;28;19951;-77
2022/10/11 12:33:38;;;;;;;;;;;20.80;62.80;;;;;;5044464;28;19955;-78
2022/10/11 12:36:21;;;;;;;;;;;20.80;62.70;;;;;;5055881;28;19982;-77
2022/10/11 12:38:46;;;;;;;;;;;20.80;62.70;;;;;;5072645;28;19959;-77
2022/10/11 12:41:12;;;;;;;;;;;20.80;62.60;;;;;;5050420;28;19958;-77
2022/10/11 12:43:46;;;;;;;;;;;20.90;62.60;;;;;;5068529;28;19935;-77
2022/10/11 12:46:27;;;;;;;;;;;20.90;62.70;;;;;;5074167;28;20427;-77
2022/10/11 12:49:16;;;;;;;;;;;20.80;62.60;;;;;;5073288;28;19916;-78
2022/10/11 12:51:44;;;;;;;;;;;20.80;62.70;;;;;;5046819;28;20511;-77
2022/10/11 12:54:15;;;;;;;;;;;20.90;62.60;;;;;;5058826;28;19912;-76
2022/10/11 12:56:48;;;;;;;;;;;20.90;62.60;;;;;;5075299;28;19916;-76
2022/10/11 12:59:15;;;;;;;;;;;20.90;62.50;;;;;;5061087;28;19924;-77
2022/10/11 13:01:53;;;;;;;;;;;21.00;62.50;;;;;;5087289;28;19966;-77
2022/10/11 13:04:21;;;;;;;;;;;21.00;62.50;;;;;;5043625;28;19912;-78
2022/10/11 13:06:57;;;;;;;;;;;21.00;62.40;;;;;;5053370;28;19923;-77
2022/10/11 13:09:23;;;;;;;;;;;21.00;62.30;;;;;;5049066;28;19920;-77
2022/10/11 13:11:53;;;;;;;;;;;21.00;62.30;;;;;;5069351;28;19923;-77
2022/10/11 13:14:19;;;;;;;;;;;21.00;62.40;;;;;;5052518;28;19939;-78
2022/10/11 13:17:03;;;;;;;;;;;21.10;62.40;;;;;;5072174;28;19912;-77
2022/10/11 13:19:29;;;;;;;;;;;21.10;62.30;;;;;;5048642;28;19964;-76
2022/10/11 13:21:56;;;;;;;;;;;21.00;62.40;;;;;;5071938;28;20496;-75
2022/10/11 13:24:22;;;;;;;;;;;21.00;62.50;;;;;;5073337;28;19920;-76
2022/10/11 13:26:48;;;;;;;;;;;21.00;63.30;;;;;;5068866;28;19916;-76
2022/10/11 13:29:33;;;;;;;;;;;21.10;62.40;;;;;;5060281;28;19998;-77
2022/10/11 13:32:03;;;;;;;;;;;21.20;62.40;;;;;;5057558;28;20045;-77
2022/10/11 13:34:29;;;;;;;;;;;21.30;62.30;;;;;;5035187;28;19927;-76
2022/10/11 13:36:57;;;;;;;;;;;21.40;62.30;;;;;;5065766;28;19912;-76
2022/10/11 13:39:27;;;;;;;;;;;21.50;62.30;;;;;;5058416;28;20412;-77
2022/10/11 13:41:53;;;;;;;;;;;21.80;62.20;;;;;;5047223;28;19917;-76
2022/10/11 13:44:19;;;;;;;;;;;21.90;61.90;;;;;;5073372;28;19916;-76
2022/10/11 13:46:44;;;;;;;;;;;22.20;61.80;;;;;;5053810;28;20296;-75
2022/10/11 13:49:25;;;;;;;;;;;22.30;61.50;;;;;;5053201;28;19920;-76
2022/10/11 13:51:58;;;;;;;;;;;22.50;61.30;;;;;;5077368;28;19920;-77
2022/10/11 13:54:23;;;;;;;;;;;22.60;61.10;;;;;;5083873;28;19918;-77
2022/10/11 13:56:49;;;;;;;;;;;22.60;60.90;;;;;;5074206;28;20339;-77
2022/10/11 13:59:19;;;;;;;;;;;22.70;60.80;;;;;;5076357;28;19923;-76
2022/10/11 14:01:44;;;;;;;;;;;22.70;60.90;;;;;;5076845;28;19912;-77
2022/10/11 14:04:11;;;;;;;;;;;22.60;60.70;;;;;;5059879;28;19919;-76
2022/10/11 14:06:45;;;;;;;;;;;22.60;60.90;;;;;;5059765;28;20461;-78
2022/10/11 14:09:15;;;;;;;;;;;22.70;61.00;;;;;;5071441;28;19912;-75
2022/10/11 14:11:41;;;;;;;;;;;22.60;60.80;;;;;;5065999;28;19995;-75
2022/10/11 14:14:25;;;;;;;;;;;22.50;61.00;;;;;;5076560;28;19938;-76
2022/10/11 14:16:54;;;;;;;;;;;22.40;61.10;;;;;;5072462;28;19947;-76
2022/10/11 14:19:20;;;;;;;;;;;22.40;61.00;;;;;;5078629;28;19973;-75
2022/10/11 14:21:45;;;;;;;;;;;22.40;61.00;;;;;;5062303;28;19915;-75